sensor_id;sensor_type;location;lat;lon;timestamp;P1;durP1;ratioP1;P2;durP2;ratioP2
11191;SDS011;5652;48.406;10.820;2022-10-30T00:01:03;9.73;;;5.43;;
11191;SDS011;5652;48.406;10.820;2022-10-30T00:03:30;8.10;;;5.10;;
11191;SDS011;5652;48.406;10.820;2022-10-30T00:05:57;7.43;;;4.85;;
11191;SDS011;5652;48.406;10.820;2022-10-30T00:08:25;11.73;;;6.32;;
11191;SDS011;5652;48.406;10.820;2022-10-30T00:10:54;18.08;;;9.18;;
11191;SDS011;5652;48.406;10.820;2022-10-30T00:13:21;13.55;;;7.13;;
11191;SDS011;5652;48.406;10.820;2022-10-30T00:15:49;13.20;;;6.17;;
11191;SDS011;5652;48.406;10.820;2022-10-30T00:18:17;9.52;;;4.85;;
11191;SDS011;5652;48.406;10.820;2022-10-30T00:20:45;8.23;;;4.78;;
11191;SDS011;5652;48.406;10.820;2022-10-30T00:23:12;12.35;;;4.82;;
11191;SDS011;5652;48.406;10.820;2022-10-30T00:25:40;11.40;;;5.53;;
11191;SDS011;5652;48.406;10.820;2022-10-30T00:28:08;12.20;;;6.07;;
11191;SDS011;5652;48.406;10.820;2022-10-30T00:30:36;14.27;;;6.28;;
11191;SDS011;5652;48.406;10.820;2022-10-30T00:33:03;14.57;;;6.38;;
11191;SDS011;5652;48.406;10.820;2022-10-30T00:35:30;21.75;;;6.57;;
11191;SDS011;5652;48.406;10.820;2022-10-30T00:37:58;17.05;;;6.35;;
11191;SDS011;5652;48.406;10.820;2022-10-30T00:40:25;13.32;;;5.50;;
11191;SDS011;5652;48.406;10.820;2022-10-30T00:42:52;12.35;;;4.95;;
11191;SDS011;5652;48.406;10.820;2022-10-30T00:45:21;12.95;;;5.00;;
11191;SDS011;5652;48.406;10.820;2022-10-30T00:47:50;14.60;;;4.63;;
11191;SDS011;5652;48.406;10.820;2022-10-30T00:50:18;13.98;;;6.32;;
11191;SDS011;5652;48.406;10.820;2022-10-30T00:52:47;10.93;;;5.40;;
11191;SDS011;5652;48.406;10.820;2022-10-30T00:55:16;16.23;;;6.28;;
11191;SDS011;5652;48.406;10.820;2022-10-30T00:57:44;12.53;;;6.00;;
11191;SDS011;5652;48.406;10.820;2022-10-30T01:00:12;11.80;;;5.80;;
11191;SDS011;5652;48.406;10.820;2022-10-30T01:02:42;12.48;;;5.68;;
11191;SDS011;5652;48.406;10.820;2022-10-30T01:05:09;12.32;;;6.15;;
11191;SDS011;5652;48.406;10.820;2022-10-30T01:07:37;9.90;;;5.43;;
11191;SDS011;5652;48.406;10.820;2022-10-30T01:10:05;15.07;;;5.63;;
11191;SDS011;5652;48.406;10.820;2022-10-30T01:12:32;9.95;;;5.45;;
11191;SDS011;5652;48.406;10.820;2022-10-30T01:14:59;10.82;;;5.30;;
11191;SDS011;5652;48.406;10.820;2022-10-30T01:20:32;15.32;;;5.95;;
11191;SDS011;5652;48.406;10.820;2022-10-30T01:23:06;11.82;;;4.78;;
11191;SDS011;5652;48.406;10.820;2022-10-30T01:25:38;12.65;;;5.00;;
11191;SDS011;5652;48.406;10.820;2022-10-30T01:28:14;10.10;;;4.90;;
11191;SDS011;5652;48.406;10.820;2022-10-30T01:30:50;8.13;;;4.57;;
11191;SDS011;5652;48.406;10.820;2022-10-30T01:33:25;7.47;;;4.88;;
11191;SDS011;5652;48.406;10.820;2022-10-30T01:35:58;6.72;;;4.18;;
11191;SDS011;5652;48.406;10.820;2022-10-30T01:38:28;12.50;;;4.72;;
11191;SDS011;5652;48.406;10.820;2022-10-30T01:40:57;17.20;;;4.78;;
11191;SDS011;5652;48.406;10.820;2022-10-30T01:43:25;13.52;;;4.78;;
11191;SDS011;5652;48.406;10.820;2022-10-30T01:45:57;15.60;;;4.53;;
11191;SDS011;5652;48.406;10.820;2022-10-30T01:48:31;27.37;;;4.70;;
11191;SDS011;5652;48.406;10.820;2022-10-30T01:51:06;14.10;;;4.60;;
11191;SDS011;5652;48.406;10.820;2022-10-30T01:53:43;12.90;;;4.90;;
11191;SDS011;5652;48.406;10.820;2022-10-30T01:56:14;7.40;;;4.03;;
11191;SDS011;5652;48.406;10.820;2022-10-30T01:58:46;15.38;;;5.15;;
11191;SDS011;5652;48.406;10.820;2022-10-30T02:01:16;13.90;;;4.60;;
11191;SDS011;5652;48.406;10.820;2022-10-30T02:03:44;10.88;;;4.25;;
11191;SDS011;5652;48.406;10.820;2022-10-30T02:06:13;12.82;;;4.20;;
11191;SDS011;5652;48.406;10.820;2022-10-30T02:08:40;12.90;;;4.72;;
11191;SDS011;5652;48.406;10.820;2022-10-30T02:11:08;7.72;;;4.05;;
11191;SDS011;5652;48.406;10.820;2022-10-30T02:13:36;11.45;;;3.70;;
11191;SDS011;5652;48.406;10.820;2022-10-30T02:16:04;11.93;;;4.10;;
11191;SDS011;5652;48.406;10.820;2022-10-30T02:18:32;10.52;;;3.88;;
11191;SDS011;5652;48.406;10.820;2022-10-30T02:21:01;6.07;;;3.90;;
11191;SDS011;5652;48.406;10.820;2022-10-30T02:23:28;7.45;;;3.80;;
11191;SDS011;5652;48.406;10.820;2022-10-30T02:25:55;7.80;;;3.95;;
11191;SDS011;5652;48.406;10.820;2022-10-30T02:28:22;9.15;;;4.15;;
11191;SDS011;5652;48.406;10.820;2022-10-30T02:30:49;9.07;;;3.90;;
11191;SDS011;5652;48.406;10.820;2022-10-30T02:33:17;8.38;;;3.88;;
11191;SDS011;5652;48.406;10.820;2022-10-30T02:35:44;9.27;;;3.47;;
11191;SDS011;5652;48.406;10.820;2022-10-30T02:38:12;7.50;;;3.78;;
11191;SDS011;5652;48.406;10.820;2022-10-30T02:40:39;6.88;;;3.75;;
11191;SDS011;5652;48.406;10.820;2022-10-30T02:43:07;7.07;;;3.90;;
11191;SDS011;5652;48.406;10.820;2022-10-30T02:45:34;8.50;;;4.00;;
11191;SDS011;5652;48.406;10.820;2022-10-30T02:48:01;7.47;;;3.50;;
11191;SDS011;5652;48.406;10.820;2022-10-30T02:50:29;7.10;;;3.58;;
11191;SDS011;5652;48.406;10.820;2022-10-30T02:52:57;6.25;;;3.78;;
11191;SDS011;5652;48.406;10.820;2022-10-30T02:55:25;8.25;;;3.55;;
11191;SDS011;5652;48.406;10.820;2022-10-30T02:57:53;8.40;;;3.38;;
11191;SDS011;5652;48.406;10.820;2022-10-30T03:00:20;12.73;;;3.85;;
11191;SDS011;5652;48.406;10.820;2022-10-30T03:02:47;7.30;;;4.18;;
11191;SDS011;5652;48.406;10.820;2022-10-30T03:05:14;6.97;;;3.97;;
11191;SDS011;5652;48.406;10.820;2022-10-30T03:07:41;10.00;;;4.25;;
11191;SDS011;5652;48.406;10.820;2022-10-30T03:10:08;7.57;;;4.35;;
11191;SDS011;5652;48.406;10.820;2022-10-30T03:12:37;9.07;;;4.00;;
11191;SDS011;5652;48.406;10.820;2022-10-30T03:15:05;10.25;;;3.80;;
11191;SDS011;5652;48.406;10.820;2022-10-30T03:17:32;8.15;;;3.88;;
11191;SDS011;5652;48.406;10.820;2022-10-30T03:19:59;6.38;;;3.45;;
11191;SDS011;5652;48.406;10.820;2022-10-30T03:22:27;6.73;;;3.20;;
11191;SDS011;5652;48.406;10.820;2022-10-30T03:24:54;59.53;;;5.35;;
11191;SDS011;5652;48.406;10.820;2022-10-30T03:27:21;26.33;;;4.00;;
11191;SDS011;5652;48.406;10.820;2022-10-30T03:29:50;29.17;;;4.20;;
11191;SDS011;5652;48.406;10.820;2022-10-30T03:32:17;15.10;;;3.78;;
11191;SDS011;5652;48.406;10.820;2022-10-30T03:34:44;7.82;;;3.60;;
11191;SDS011;5652;48.406;10.820;2022-10-30T03:37:11;8.73;;;4.65;;
11191;SDS011;5652;48.406;10.820;2022-10-30T03:39:38;7.97;;;4.10;;
11191;SDS011;5652;48.406;10.820;2022-10-30T03:42:06;7.05;;;3.90;;
11191;SDS011;5652;48.406;10.820;2022-10-30T03:44:33;7.72;;;4.53;;
11191;SDS011;5652;48.406;10.820;2022-10-30T03:47:01;7.25;;;3.95;;
11191;SDS011;5652;48.406;10.820;2022-10-30T03:49:29;7.97;;;4.03;;
11191;SDS011;5652;48.406;10.820;2022-10-30T03:51:56;12.75;;;3.70;;
11191;SDS011;5652;48.406;10.820;2022-10-30T03:54:23;6.18;;;3.78;;
11191;SDS011;5652;48.406;10.820;2022-10-30T03:56:50;7.43;;;4.10;;
11191;SDS011;5652;48.406;10.820;2022-10-30T03:59:17;8.05;;;3.95;;
11191;SDS011;5652;48.406;10.820;2022-10-30T04:01:44;11.93;;;4.38;;
11191;SDS011;5652;48.406;10.820;2022-10-30T04:04:13;6.53;;;3.47;;
11191;SDS011;5652;48.406;10.820;2022-10-30T04:06:40;25.20;;;4.75;;
11191;SDS011;5652;48.406;10.820;2022-10-30T04:09:07;5.40;;;3.13;;
11191;SDS011;5652;48.406;10.820;2022-10-30T04:11:35;11.18;;;3.72;;
11191;SDS011;5652;48.406;10.820;2022-10-30T04:14:02;16.07;;;3.90;;
11191;SDS011;5652;48.406;10.820;2022-10-30T04:16:29;14.13;;;4.05;;
11191;SDS011;5652;48.406;10.820;2022-10-30T04:18:56;7.80;;;3.60;;
11191;SDS011;5652;48.406;10.820;2022-10-30T04:21:25;8.13;;;3.90;;
11191;SDS011;5652;48.406;10.820;2022-10-30T04:23:52;6.50;;;3.60;;
11191;SDS011;5652;48.406;10.820;2022-10-30T04:26:19;6.78;;;3.80;;
11191;SDS011;5652;48.406;10.820;2022-10-30T04:28:46;8.03;;;3.50;;
11191;SDS011;5652;48.406;10.820;2022-10-30T04:31:13;9.40;;;4.20;;
11191;SDS011;5652;48.406;10.820;2022-10-30T04:33:41;8.23;;;3.73;;
11191;SDS011;5652;48.406;10.820;2022-10-30T04:36:08;7.80;;;3.90;;
11191;SDS011;5652;48.406;10.820;2022-10-30T04:38:36;8.25;;;4.10;;
11191;SDS011;5652;48.406;10.820;2022-10-30T04:41:04;8.18;;;3.80;;
11191;SDS011;5652;48.406;10.820;2022-10-30T04:43:31;10.43;;;4.30;;
11191;SDS011;5652;48.406;10.820;2022-10-30T04:46:02;8.40;;;4.32;;
11191;SDS011;5652;48.406;10.820;2022-10-30T04:48:29;8.98;;;4.53;;
11191;SDS011;5652;48.406;10.820;2022-10-30T04:50:59;10.40;;;4.50;;
11191;SDS011;5652;48.406;10.820;2022-10-30T04:53:26;7.68;;;4.63;;
11191;SDS011;5652;48.406;10.820;2022-10-30T04:55:54;6.83;;;4.10;;
11191;SDS011;5652;48.406;10.820;2022-10-30T04:58:21;7.15;;;3.63;;
11191;SDS011;5652;48.406;10.820;2022-10-30T05:00:49;7.05;;;3.72;;
11191;SDS011;5652;48.406;10.820;2022-10-30T05:03:17;5.75;;;3.70;;
11191;SDS011;5652;48.406;10.820;2022-10-30T05:05:45;8.10;;;3.67;;
11191;SDS011;5652;48.406;10.820;2022-10-30T05:08:12;10.13;;;3.50;;
11191;SDS011;5652;48.406;10.820;2022-10-30T05:10:39;6.33;;;3.93;;
11191;SDS011;5652;48.406;10.820;2022-10-30T05:13:09;7.65;;;3.95;;
11191;SDS011;5652;48.406;10.820;2022-10-30T05:15:37;9.02;;;3.53;;
11191;SDS011;5652;48.406;10.820;2022-10-30T05:18:04;10.05;;;3.50;;
11191;SDS011;5652;48.406;10.820;2022-10-30T05:20:31;6.35;;;3.53;;
11191;SDS011;5652;48.406;10.820;2022-10-30T05:22:59;6.47;;;3.70;;
11191;SDS011;5652;48.406;10.820;2022-10-30T05:25:26;6.13;;;3.38;;
11191;SDS011;5652;48.406;10.820;2022-10-30T05:27:56;6.05;;;3.10;;
11191;SDS011;5652;48.406;10.820;2022-10-30T05:30:25;8.70;;;3.33;;
11191;SDS011;5652;48.406;10.820;2022-10-30T05:32:56;6.07;;;3.45;;
11191;SDS011;5652;48.406;10.820;2022-10-30T05:35:23;5.95;;;3.17;;
11191;SDS011;5652;48.406;10.820;2022-10-30T05:37:50;9.23;;;3.10;;
11191;SDS011;5652;48.406;10.820;2022-10-30T05:40:18;4.57;;;3.53;;
11191;SDS011;5652;48.406;10.820;2022-10-30T05:42:45;7.95;;;5.15;;
11191;SDS011;5652;48.406;10.820;2022-10-30T05:45:12;8.13;;;5.35;;
11191;SDS011;5652;48.406;10.820;2022-10-30T05:47:41;7.45;;;5.10;;
11191;SDS011;5652;48.406;10.820;2022-10-30T05:50:08;7.72;;;5.70;;
11191;SDS011;5652;48.406;10.820;2022-10-30T05:52:36;9.15;;;5.15;;
11191;SDS011;5652;48.406;10.820;2022-10-30T05:55:04;11.13;;;4.60;;
11191;SDS011;5652;48.406;10.820;2022-10-30T05:57:31;7.25;;;3.78;;
11191;SDS011;5652;48.406;10.820;2022-10-30T05:59:59;7.63;;;3.77;;
11191;SDS011;5652;48.406;10.820;2022-10-30T06:02:26;6.50;;;4.00;;
11191;SDS011;5652;48.406;10.820;2022-10-30T06:04:54;6.45;;;3.60;;
11191;SDS011;5652;48.406;10.820;2022-10-30T06:07:21;7.30;;;3.90;;
11191;SDS011;5652;48.406;10.820;2022-10-30T06:09:49;7.32;;;3.45;;
11191;SDS011;5652;48.406;10.820;2022-10-30T06:12:16;7.05;;;3.85;;
11191;SDS011;5652;48.406;10.820;2022-10-30T06:14:43;6.33;;;4.07;;
11191;SDS011;5652;48.406;10.820;2022-10-30T06:17:10;6.25;;;4.00;;
11191;SDS011;5652;48.406;10.820;2022-10-30T06:19:37;8.05;;;3.95;;
11191;SDS011;5652;48.406;10.820;2022-10-30T06:22:06;6.30;;;3.60;;
11191;SDS011;5652;48.406;10.820;2022-10-30T06:24:33;7.93;;;4.13;;
11191;SDS011;5652;48.406;10.820;2022-10-30T06:27:00;12.27;;;3.58;;
11191;SDS011;5652;48.406;10.820;2022-10-30T06:29:27;6.50;;;4.00;;
11191;SDS011;5652;48.406;10.820;2022-10-30T06:31:54;6.65;;;3.35;;
11191;SDS011;5652;48.406;10.820;2022-10-30T06:34:22;9.65;;;3.80;;
11191;SDS011;5652;48.406;10.820;2022-10-30T06:36:50;6.03;;;3.65;;
11191;SDS011;5652;48.406;10.820;2022-10-30T06:39:18;8.75;;;3.95;;
11191;SDS011;5652;48.406;10.820;2022-10-30T06:41:45;8.00;;;4.03;;
11191;SDS011;5652;48.406;10.820;2022-10-30T06:44:12;6.90;;;3.80;;
11191;SDS011;5652;48.406;10.820;2022-10-30T06:46:40;7.97;;;3.75;;
11191;SDS011;5652;48.406;10.820;2022-10-30T06:49:07;7.32;;;3.65;;
11191;SDS011;5652;48.406;10.820;2022-10-30T06:51:34;7.32;;;3.65;;
11191;SDS011;5652;48.406;10.820;2022-10-30T06:54:01;8.20;;;3.85;;
11191;SDS011;5652;48.406;10.820;2022-10-30T06:56:30;7.20;;;3.40;;
11191;SDS011;5652;48.406;10.820;2022-10-30T06:58:57;6.60;;;3.50;;
11191;SDS011;5652;48.406;10.820;2022-10-30T07:01:24;6.63;;;3.30;;
11191;SDS011;5652;48.406;10.820;2022-10-30T07:03:52;8.02;;;3.30;;
11191;SDS011;5652;48.406;10.820;2022-10-30T07:06:19;10.77;;;3.47;;
11191;SDS011;5652;48.406;10.820;2022-10-30T07:08:46;6.57;;;3.17;;
11191;SDS011;5652;48.406;10.820;2022-10-30T07:11:13;7.40;;;3.40;;
11191;SDS011;5652;48.406;10.820;2022-10-30T07:13:42;8.45;;;3.00;;
11191;SDS011;5652;48.406;10.820;2022-10-30T07:16:09;9.82;;;3.47;;
11191;SDS011;5652;48.406;10.820;2022-10-30T07:18:36;8.13;;;3.30;;
11191;SDS011;5652;48.406;10.820;2022-10-30T07:21:03;7.63;;;3.30;;
11191;SDS011;5652;48.406;10.820;2022-10-30T07:23:31;6.47;;;3.00;;
11191;SDS011;5652;48.406;10.820;2022-10-30T07:25:58;7.35;;;2.70;;
11191;SDS011;5652;48.406;10.820;2022-10-30T07:28:25;8.35;;;2.92;;
11191;SDS011;5652;48.406;10.820;2022-10-30T07:30:54;7.20;;;3.08;;
11191;SDS011;5652;48.406;10.820;2022-10-30T07:33:21;7.20;;;2.63;;
11191;SDS011;5652;48.406;10.820;2022-10-30T07:35:48;4.57;;;2.78;;
11191;SDS011;5652;48.406;10.820;2022-10-30T07:38:15;5.75;;;2.80;;
11191;SDS011;5652;48.406;10.820;2022-10-30T07:40:42;7.10;;;3.00;;
11191;SDS011;5652;48.406;10.820;2022-10-30T07:43:10;5.15;;;2.92;;
11191;SDS011;5652;48.406;10.820;2022-10-30T07:45:37;6.32;;;2.63;;
11191;SDS011;5652;48.406;10.820;2022-10-30T07:48:06;5.65;;;2.85;;
11191;SDS011;5652;48.406;10.820;2022-10-30T07:50:33;8.05;;;3.05;;
11191;SDS011;5652;48.406;10.820;2022-10-30T07:53:00;8.47;;;3.33;;
11191;SDS011;5652;48.406;10.820;2022-10-30T07:55:27;10.85;;;3.05;;
11191;SDS011;5652;48.406;10.820;2022-10-30T07:57:54;5.68;;;2.97;;
11191;SDS011;5652;48.406;10.820;2022-10-30T08:00:22;4.50;;;2.83;;
11191;SDS011;5652;48.406;10.820;2022-10-30T08:02:49;4.85;;;2.70;;
11191;SDS011;5652;48.406;10.820;2022-10-30T08:05:18;5.78;;;2.67;;
11191;SDS011;5652;48.406;10.820;2022-10-30T08:07:45;6.28;;;2.83;;
11191;SDS011;5652;48.406;10.820;2022-10-30T08:10:13;7.88;;;3.05;;
11191;SDS011;5652;48.406;10.820;2022-10-30T08:12:40;5.82;;;2.72;;
11191;SDS011;5652;48.406;10.820;2022-10-30T08:15:09;9.38;;;3.20;;
11191;SDS011;5652;48.406;10.820;2022-10-30T08:17:40;5.57;;;2.78;;
11191;SDS011;5652;48.406;10.820;2022-10-30T08:20:07;6.78;;;3.10;;
11191;SDS011;5652;48.406;10.820;2022-10-30T08:22:43;6.73;;;3.10;;
11191;SDS011;5652;48.406;10.820;2022-10-30T08:25:10;6.05;;;3.00;;
11191;SDS011;5652;48.406;10.820;2022-10-30T08:27:38;6.57;;;2.93;;
11191;SDS011;5652;48.406;10.820;2022-10-30T08:30:05;6.55;;;3.03;;
11191;SDS011;5652;48.406;10.820;2022-10-30T08:32:33;7.03;;;3.22;;
11191;SDS011;5652;48.406;10.820;2022-10-30T08:35:00;5.68;;;2.92;;
11191;SDS011;5652;48.406;10.820;2022-10-30T08:37:27;8.23;;;3.10;;
11191;SDS011;5652;48.406;10.820;2022-10-30T08:39:56;6.53;;;3.10;;
11191;SDS011;5652;48.406;10.820;2022-10-30T08:42:23;9.40;;;3.03;;
11191;SDS011;5652;48.406;10.820;2022-10-30T08:44:50;8.00;;;3.30;;
11191;SDS011;5652;48.406;10.820;2022-10-30T08:47:18;9.07;;;3.30;;
11191;SDS011;5652;48.406;10.820;2022-10-30T08:49:45;7.43;;;3.10;;
11191;SDS011;5652;48.406;10.820;2022-10-30T08:52:12;10.05;;;3.40;;
11191;SDS011;5652;48.406;10.820;2022-10-30T08:54:39;8.23;;;3.20;;
11191;SDS011;5652;48.406;10.820;2022-10-30T08:57:08;8.57;;;3.30;;
11191;SDS011;5652;48.406;10.820;2022-10-30T08:59:35;7.35;;;3.10;;
11191;SDS011;5652;48.406;10.820;2022-10-30T09:02:02;6.22;;;2.90;;
11191;SDS011;5652;48.406;10.820;2022-10-30T09:04:31;7.20;;;3.13;;
11191;SDS011;5652;48.406;10.820;2022-10-30T09:06:59;10.15;;;3.05;;
11191;SDS011;5652;48.406;10.820;2022-10-30T09:09:26;10.20;;;3.20;;
11191;SDS011;5652;48.406;10.820;2022-10-30T09:11:53;6.88;;;3.15;;
11191;SDS011;5652;48.406;10.820;2022-10-30T09:14:24;7.05;;;3.10;;
11191;SDS011;5652;48.406;10.820;2022-10-30T09:16:52;16.15;;;3.70;;
11191;SDS011;5652;48.406;10.820;2022-10-30T09:19:20;11.98;;;3.67;;
11191;SDS011;5652;48.406;10.820;2022-10-30T09:21:48;11.23;;;4.18;;
11191;SDS011;5652;48.406;10.820;2022-10-30T09:24:15;9.20;;;3.45;;
11191;SDS011;5652;48.406;10.820;2022-10-30T09:26:43;10.50;;;3.20;;
11191;SDS011;5652;48.406;10.820;2022-10-30T09:29:10;11.90;;;3.40;;
11191;SDS011;5652;48.406;10.820;2022-10-30T09:31:39;11.13;;;3.00;;
11191;SDS011;5652;48.406;10.820;2022-10-30T09:34:06;8.07;;;3.05;;
11191;SDS011;5652;48.406;10.820;2022-10-30T09:36:33;10.07;;;3.40;;
11191;SDS011;5652;48.406;10.820;2022-10-30T09:39:00;7.78;;;2.83;;
11191;SDS011;5652;48.406;10.820;2022-10-30T09:41:33;11.57;;;3.07;;
11191;SDS011;5652;48.406;10.820;2022-10-30T09:44:06;9.95;;;3.05;;
11191;SDS011;5652;48.406;10.820;2022-10-30T09:46:42;8.60;;;2.90;;
11191;SDS011;5652;48.406;10.820;2022-10-30T09:49:19;11.73;;;3.30;;
11191;SDS011;5652;48.406;10.820;2022-10-30T09:54:40;7.40;;;3.30;;
11191;SDS011;5652;48.406;10.820;2022-10-30T09:57:13;11.40;;;3.57;;
11191;SDS011;5652;48.406;10.820;2022-10-30T09:59:44;6.72;;;3.00;;
11191;SDS011;5652;48.406;10.820;2022-10-30T10:02:25;8.65;;;3.03;;
11191;SDS011;5652;48.406;10.820;2022-10-30T10:04:53;8.27;;;3.00;;
11191;SDS011;5652;48.406;10.820;2022-10-30T10:07:22;8.23;;;3.10;;
11191;SDS011;5652;48.406;10.820;2022-10-30T10:09:52;7.40;;;2.63;;
11191;SDS011;5652;48.406;10.820;2022-10-30T10:12:22;7.25;;;2.90;;
11191;SDS011;5652;48.406;10.820;2022-10-30T10:14:51;9.65;;;3.15;;
11191;SDS011;5652;48.406;10.820;2022-10-30T10:17:25;10.43;;;3.70;;
11191;SDS011;5652;48.406;10.820;2022-10-30T10:19:54;7.40;;;3.10;;
11191;SDS011;5652;48.406;10.820;2022-10-30T10:22:24;9.98;;;3.30;;
11191;SDS011;5652;48.406;10.820;2022-10-30T10:24:52;8.35;;;3.22;;
11191;SDS011;5652;48.406;10.820;2022-10-30T10:27:22;8.48;;;3.45;;
11191;SDS011;5652;48.406;10.820;2022-10-30T10:29:55;9.23;;;3.15;;
11191;SDS011;5652;48.406;10.820;2022-10-30T10:35:22;9.25;;;3.22;;
11191;SDS011;5652;48.406;10.820;2022-10-30T10:37:51;9.32;;;3.22;;
11191;SDS011;5652;48.406;10.820;2022-10-30T10:40:27;6.77;;;2.70;;
11191;SDS011;5652;48.406;10.820;2022-10-30T10:43:04;11.43;;;3.22;;
11191;SDS011;5652;48.406;10.820;2022-10-30T10:45:38;9.70;;;3.10;;
11191;SDS011;5652;48.406;10.820;2022-10-30T10:48:13;10.00;;;3.17;;
11191;SDS011;5652;48.406;10.820;2022-10-30T10:50:47;7.90;;;3.10;;
11191;SDS011;5652;48.406;10.820;2022-10-30T10:53:17;10.40;;;3.28;;
11191;SDS011;5652;48.406;10.820;2022-10-30T10:55:46;10.38;;;3.30;;
11191;SDS011;5652;48.406;10.820;2022-10-30T10:58:17;8.75;;;3.08;;
11191;SDS011;5652;48.406;10.820;2022-10-30T11:00:45;7.40;;;3.35;;
11191;SDS011;5652;48.406;10.820;2022-10-30T11:03:13;10.52;;;3.22;;
11191;SDS011;5652;48.406;10.820;2022-10-30T11:05:42;11.95;;;3.17;;
11191;SDS011;5652;48.406;10.820;2022-10-30T11:08:14;7.43;;;2.95;;
11191;SDS011;5652;48.406;10.820;2022-10-30T11:10:43;9.50;;;2.83;;
11191;SDS011;5652;48.406;10.820;2022-10-30T11:13:11;10.43;;;3.00;;
11191;SDS011;5652;48.406;10.820;2022-10-30T11:15:41;6.90;;;2.97;;
11191;SDS011;5652;48.406;10.820;2022-10-30T11:18:12;9.88;;;3.38;;
11191;SDS011;5652;48.406;10.820;2022-10-30T11:20:41;10.77;;;3.47;;
11191;SDS011;5652;48.406;10.820;2022-10-30T11:25:56;9.18;;;3.40;;
11191;SDS011;5652;48.406;10.820;2022-10-30T11:28:27;9.23;;;3.20;;
11191;SDS011;5652;48.406;10.820;2022-10-30T11:31:04;10.57;;;3.30;;
11191;SDS011;5652;48.406;10.820;2022-10-30T11:33:42;12.85;;;3.28;;
11191;SDS011;5652;48.406;10.820;2022-10-30T11:36:09;10.55;;;2.97;;
11191;SDS011;5652;48.406;10.820;2022-10-30T11:38:37;7.55;;;2.50;;
11191;SDS011;5652;48.406;10.820;2022-10-30T11:41:05;11.10;;;3.30;;
11191;SDS011;5652;48.406;10.820;2022-10-30T11:43:34;9.60;;;3.42;;
11191;SDS011;5652;48.406;10.820;2022-10-30T11:46:03;9.18;;;3.10;;
11191;SDS011;5652;48.406;10.820;2022-10-30T11:48:33;10.30;;;3.45;;
11191;SDS011;5652;48.406;10.820;2022-10-30T11:51:02;11.90;;;3.30;;
11191;SDS011;5652;48.406;10.820;2022-10-30T11:53:30;9.13;;;3.10;;
11191;SDS011;5652;48.406;10.820;2022-10-30T11:56:00;7.57;;;3.15;;
11191;SDS011;5652;48.406;10.820;2022-10-30T11:58:31;9.60;;;3.10;;
11191;SDS011;5652;48.406;10.820;2022-10-30T12:01:00;10.13;;;3.22;;
11191;SDS011;5652;48.406;10.820;2022-10-30T12:03:29;8.32;;;3.10;;
11191;SDS011;5652;48.406;10.820;2022-10-30T12:06:06;8.93;;;3.20;;
11191;SDS011;5652;48.406;10.820;2022-10-30T12:08:34;10.73;;;3.30;;
11191;SDS011;5652;48.406;10.820;2022-10-30T12:11:01;7.72;;;3.17;;
11191;SDS011;5652;48.406;10.820;2022-10-30T12:13:35;12.52;;;3.25;;
11191;SDS011;5652;48.406;10.820;2022-10-30T12:16:07;10.35;;;3.10;;
11191;SDS011;5652;48.406;10.820;2022-10-30T12:18:35;10.50;;;3.38;;
11191;SDS011;5652;48.406;10.820;2022-10-30T12:21:02;8.00;;;2.80;;
11191;SDS011;5652;48.406;10.820;2022-10-30T12:23:30;9.43;;;3.03;;
11191;SDS011;5652;48.406;10.820;2022-10-30T12:25:59;8.60;;;3.10;;
11191;SDS011;5652;48.406;10.820;2022-10-30T12:28:27;9.80;;;2.80;;
11191;SDS011;5652;48.406;10.820;2022-10-30T12:30:57;8.18;;;2.72;;
11191;SDS011;5652;48.406;10.820;2022-10-30T12:33:26;7.80;;;2.65;;
11191;SDS011;5652;48.406;10.820;2022-10-30T12:35:55;9.23;;;2.87;;
11191;SDS011;5652;48.406;10.820;2022-10-30T12:38:24;9.55;;;2.88;;
11191;SDS011;5652;48.406;10.820;2022-10-30T12:41:01;8.18;;;3.08;;
11191;SDS011;5652;48.406;10.820;2022-10-30T12:43:31;7.97;;;3.13;;
11191;SDS011;5652;48.406;10.820;2022-10-30T12:46:03;8.23;;;2.70;;
11191;SDS011;5652;48.406;10.820;2022-10-30T12:48:32;11.45;;;2.95;;
11191;SDS011;5652;48.406;10.820;2022-10-30T12:51:06;9.23;;;2.93;;
11191;SDS011;5652;48.406;10.820;2022-10-30T12:53:37;7.50;;;3.17;;
11191;SDS011;5652;48.406;10.820;2022-10-30T12:56:07;12.07;;;3.30;;
11191;SDS011;5652;48.406;10.820;2022-10-30T12:58:37;9.63;;;3.10;;
11191;SDS011;5652;48.406;10.820;2022-10-30T13:01:09;10.52;;;3.10;;
11191;SDS011;5652;48.406;10.820;2022-10-30T13:03:38;10.10;;;3.22;;
11191;SDS011;5652;48.406;10.820;2022-10-30T13:06:09;6.20;;;2.90;;
11191;SDS011;5652;48.406;10.820;2022-10-30T13:08:40;8.10;;;2.93;;
11191;SDS011;5652;48.406;10.820;2022-10-30T13:11:10;9.27;;;3.13;;
11191;SDS011;5652;48.406;10.820;2022-10-30T13:13:41;10.65;;;2.83;;
11191;SDS011;5652;48.406;10.820;2022-10-30T13:16:11;6.13;;;2.90;;
11191;SDS011;5652;48.406;10.820;2022-10-30T13:18:40;7.27;;;2.67;;
11191;SDS011;5652;48.406;10.820;2022-10-30T13:21:15;7.17;;;3.00;;
11191;SDS011;5652;48.406;10.820;2022-10-30T13:23:47;8.40;;;2.65;;
11191;SDS011;5652;48.406;10.820;2022-10-30T13:26:19;9.82;;;3.15;;
11191;SDS011;5652;48.406;10.820;2022-10-30T13:28:50;8.60;;;2.92;;
11191;SDS011;5652;48.406;10.820;2022-10-30T13:31:22;12.35;;;3.20;;
11191;SDS011;5652;48.406;10.820;2022-10-30T13:33:55;9.18;;;2.80;;
11191;SDS011;5652;48.406;10.820;2022-10-30T13:36:27;8.23;;;2.90;;
11191;SDS011;5652;48.406;10.820;2022-10-30T13:38:57;12.40;;;3.05;;
11191;SDS011;5652;48.406;10.820;2022-10-30T13:41:30;9.82;;;3.40;;
11191;SDS011;5652;48.406;10.820;2022-10-30T13:44:02;8.65;;;2.88;;
11191;SDS011;5652;48.406;10.820;2022-10-30T13:46:36;9.18;;;3.00;;
11191;SDS011;5652;48.406;10.820;2022-10-30T13:49:12;9.80;;;3.17;;
11191;SDS011;5652;48.406;10.820;2022-10-30T13:51:43;10.45;;;3.03;;
11191;SDS011;5652;48.406;10.820;2022-10-30T13:54:16;8.18;;;3.25;;
11191;SDS011;5652;48.406;10.820;2022-10-30T13:56:44;8.13;;;2.70;;
11191;SDS011;5652;48.406;10.820;2022-10-30T13:59:19;8.40;;;3.10;;
11191;SDS011;5652;48.406;10.820;2022-10-30T14:01:54;9.32;;;3.30;;
11191;SDS011;5652;48.406;10.820;2022-10-30T14:04:25;9.23;;;2.95;;
11191;SDS011;5652;48.406;10.820;2022-10-30T14:07:07;9.13;;;3.13;;
11191;SDS011;5652;48.406;10.820;2022-10-30T14:09:40;7.47;;;2.90;;
11191;SDS011;5652;48.406;10.820;2022-10-30T14:14:55;6.78;;;2.90;;
11191;SDS011;5652;48.406;10.820;2022-10-30T14:17:23;8.50;;;2.90;;
11191;SDS011;5652;48.406;10.820;2022-10-30T14:22:37;6.38;;;2.90;;
11191;SDS011;5652;48.406;10.820;2022-10-30T14:25:11;12.15;;;3.10;;
11191;SDS011;5652;48.406;10.820;2022-10-30T14:27:39;9.27;;;3.13;;
11191;SDS011;5652;48.406;10.820;2022-10-30T14:30:14;11.30;;;2.97;;
11191;SDS011;5652;48.406;10.820;2022-10-30T14:32:50;9.90;;;3.30;;
11191;SDS011;5652;48.406;10.820;2022-10-30T14:35:34;7.03;;;3.03;;
11191;SDS011;5652;48.406;10.820;2022-10-30T14:38:20;6.65;;;2.97;;
11191;SDS011;5652;48.406;10.820;2022-10-30T14:40:54;8.40;;;3.25;;
11191;SDS011;5652;48.406;10.820;2022-10-30T14:43:30;11.20;;;3.28;;
11191;SDS011;5652;48.406;10.820;2022-10-30T14:45:59;9.67;;;3.13;;
11191;SDS011;5652;48.406;10.820;2022-10-30T14:48:41;11.07;;;2.90;;
11191;SDS011;5652;48.406;10.820;2022-10-30T14:51:13;7.82;;;3.47;;
11191;SDS011;5652;48.406;10.820;2022-10-30T14:53:46;9.40;;;3.10;;
11191;SDS011;5652;48.406;10.820;2022-10-30T14:56:18;9.48;;;3.50;;
11191;SDS011;5652;48.406;10.820;2022-10-30T14:59:07;9.70;;;3.15;;
11191;SDS011;5652;48.406;10.820;2022-10-30T15:01:35;9.45;;;3.45;;
11191;SDS011;5652;48.406;10.820;2022-10-30T15:04:13;12.23;;;3.30;;
11191;SDS011;5652;48.406;10.820;2022-10-30T15:06:50;9.67;;;3.27;;
11191;SDS011;5652;48.406;10.820;2022-10-30T15:09:21;7.63;;;2.90;;
11191;SDS011;5652;48.406;10.820;2022-10-30T15:11:58;7.68;;;3.20;;